Time;durP1;ratioP1;P1;durP2;ratioP2;P2;SDS_P1;SDS_P2;PMS_P1;PMS_P2;Temp;Humidity;BMP_temperature;BMP_pressure;BME280_temperature;BME280_humidity;BME280_pressure;Samples;Min_cycle;Max_cycle;Signal;HPM_P1;HPM_P2
2021/09/02 00:00:38;;;;;;;4.32;1.73;;;;;;;15.61;100.00;101501.09;5039355;28;20047;-50
2021/09/02 00:03:41;;;;;;;1.13;0.88;;;;;;;15.61;100.00;101501.09;5039084;28;20059;-51
2021/09/02 00:06:44;;;;;;;1.75;1.23;;;;;;;15.66;100.00;101490.00;5038661;28;21057;-50
2021/09/02 00:09:46;;;;;;;4.72;1.40;;;;;;;15.58;100.00;101490.81;5038799;28;20527;-50
2021/09/02 00:12:50;;;;;;;3.28;1.38;;;;;;;14.66;100.00;101502.44;5039370;28;20055;-50
2021/09/02 00:15:53;;;;;;;4.68;1.75;;;;;;;14.88;100.00;101492.66;5037809;28;20801;-50
2021/09/02 00:18:57;;;;;;;5.07;1.73;;;;;;;14.94;100.00;101487.97;5039195;28;20128;-51
2021/09/02 00:21:59;;;;;;;2.90;1.63;;;;;;;14.61;100.00;101480.59;5039600;28;20571;-51
2021/09/02 00:25:03;;;;;;;10.25;1.23;;;;;;;14.84;100.00;101475.19;5038421;28;20350;-50
2021/09/02 00:28:06;;;;;;;1.40;1.00;;;;;;;14.90;100.00;101475.38;5041130;28;20058;-50
2021/09/02 00:31:09;;;;;;;5.13;2.05;;;;;;;14.93;100.00;101475.22;5040733;28;20105;-51
2021/09/02 00:34:12;;;;;;;2.20;1.58;;;;;;;15.20;100.00;101471.66;5036289;28;20627;-49
2021/09/02 00:37:15;;;;;;;2.90;1.40;;;;;;;14.94;100.00;101465.53;5036450;28;20098;-50
2021/09/02 00:40:18;;;;;;;1.75;1.30;;;;;;;14.92;100.00;101468.03;5037337;28;20066;-50
2021/09/02 00:43:21;;;;;;;3.40;0.50;;;;;;;15.10;100.00;101472.88;5044690;28;20673;-50
2021/09/02 00:46:24;;;;;;;0.73;0.73;;;;;;;14.55;100.00;101472.03;5059849;28;20094;-50
2021/09/02 00:49:28;;;;;;;1.63;1.00;;;;;;;15.04;100.00;101469.13;5058958;28;20047;-51
2021/09/02 00:52:32;;;;;;;1.85;1.10;;;;;;;14.71;100.00;101462.56;5058625;28;20123;-50
2021/09/02 00:55:36;;;;;;;5.07;1.38;;;;;;;14.34;100.00;101458.88;5057825;28;20027;-50
2021/09/02 00:58:43;;;;;;;8.18;1.95;;;;;;;13.64;100.00;101474.41;5056626;28;20059;-51
2021/09/02 01:01:47;;;;;;;1.95;0.90;;;;;;;13.70;100.00;101471.81;5058386;28;20788;-50
2021/09/02 01:04:55;;;;;;;3.08;1.00;;;;;;;14.41;100.00;101467.78;5057364;28;20027;-50
2021/09/02 01:08:00;;;;;;;4.10;1.63;;;;;;;14.57;100.00;101461.16;5057547;28;20130;-50
2021/09/02 01:11:04;;;;;;;2.17;0.57;;;;;;;14.70;100.00;101456.19;5057098;28;20093;-50
2021/09/02 01:14:17;;;;;;;1.27;1.20;;;;;;;14.82;100.00;101451.66;5056921;28;20785;-50
2021/09/02 01:17:22;;;;;;;1.85;0.95;;;;;;;14.96;100.00;101451.06;5056129;28;20080;-51
2021/09/02 01:20:30;;;;;;;2.53;1.63;;;;;;;14.89;100.00;101452.16;5055987;28;20125;-50
2021/09/02 01:23:36;;;;;;;3.05;1.70;;;;;;;14.85;100.00;101451.53;5057238;28;21039;-50
2021/09/02 01:26:39;;;;;;;5.32;1.40;;;;;;;14.40;100.00;101443.03;5055259;28;20059;-51
2021/09/02 01:29:42;;;;;;;4.03;2.45;;;;;;;13.95;100.00;101442.81;5054293;28;20565;-51
2021/09/02 01:32:47;;;;;;;1.45;1.35;;;;;;;13.90;100.00;101443.44;5058034;28;20042;-51
2021/09/02 01:35:51;;;;;;;4.00;1.70;;;;;;;14.13;100.00;101445.72;5058847;28;20116;-50
2021/09/02 01:38:54;;;;;;;2.20;2.00;;;;;;;14.63;100.00;101445.25;5059890;28;20055;-50
2021/09/02 01:41:57;;;;;;;5.95;1.70;;;;;;;14.10;100.00;101446.63;5061669;28;20070;-49
2021/09/02 01:45:00;;;;;;;5.75;1.77;;;;;;;14.91;100.00;101435.63;5060944;28;20407;-49
2021/09/02 01:48:04;;;;;;;5.60;0.95;;;;;;;14.44;100.00;101435.25;5061338;28;20051;-50
2021/09/02 01:51:07;;;;;;;4.90;2.38;;;;;;;14.60;100.00;101440.56;5062268;28;20418;-49
2021/09/02 01:54:11;;;;;;;5.28;2.08;;;;;;;14.93;100.00;101430.31;5083947;28;20065;-49
2021/09/02 01:57:15;;;;;;;4.70;1.10;;;;;;;15.04;100.00;101441.88;5096242;28;20074;-50
2021/09/02 02:00:19;;;;;;;5.53;1.80;;;;;;;15.01;100.00;101439.97;5096406;28;20043;-50
2021/09/02 02:03:22;;;;;;;8.50;2.80;;;;;;;15.12;100.00;101431.09;5096273;28;20089;-49
2021/09/02 02:06:25;;;;;;;3.47;2.13;;;;;;;14.83;100.00;101437.19;5096161;28;20055;-51
2021/09/02 02:09:28;;;;;;;3.25;1.50;;;;;;;14.82;100.00;101435.63;5096011;28;20166;-52
2021/09/02 02:12:31;;;;;;;9.70;1.42;;;;;;;14.36;100.00;101442.38;5095917;28;20522;-51
2021/09/02 02:15:34;;;;;;;8.38;2.03;;;;;;;14.85;100.00;101445.13;5095640;28;20689;-52
2021/09/02 02:18:37;;;;;;;4.43;2.00;;;;;;;14.92;100.00;101447.63;5095553;28;20043;-51
2021/09/02 02:21:40;;;;;;;5.88;1.85;;;;;;;15.00;100.00;101446.84;5095546;28;20093;-52
2021/09/02 02:24:43;;;;;;;6.72;2.15;;;;;;;14.66;100.00;101437.94;5095865;28;20042;-51
2021/09/02 02:27:46;;;;;;;5.75;1.83;;;;;;;13.95;100.00;101445.63;5095700;28;20046;-51
2021/09/02 02:30:48;;;;;;;3.25;1.10;;;;;;;13.69;100.00;101442.25;5095339;28;20142;-51
2021/09/02 02:33:51;;;;;;;3.95;1.65;;;;;;;13.65;100.00;101445.19;5095742;28;20070;-52
2021/09/02 02:36:54;;;;;;;7.47;2.53;;;;;;;14.07;100.00;101430.75;5095360;28;20435;-51
2021/09/02 02:39:57;;;;;;;4.57;2.08;;;;;;;14.62;100.00;101426.09;5095262;28;20043;-52
2021/09/02 02:43:00;;;;;;;4.85;2.10;;;;;;;14.62;100.00;101426.88;5094878;28;20404;-52
2021/09/02 02:46:04;;;;;;;7.25;2.13;;;;;;;14.58;100.00;101426.25;5095586;28;20058;-52
2021/09/02 02:49:07;;;;;;;7.03;2.47;;;;;;;13.92;100.00;101424.94;5095330;28;20097;-52
2021/09/02 02:52:10;;;;;;;2.65;1.40;;;;;;;14.46;100.00;101429.97;5095491;28;20414;-52
2021/09/02 02:55:14;;;;;;;6.47;2.17;;;;;;;14.38;100.00;101423.06;5095117;28;20043;-52
2021/09/02 02:58:16;;;;;;;5.22;1.95;;;;;;;14.26;100.00;101427.56;5094959;28;20065;-52
2021/09/02 03:01:19;;;;;;;10.85;1.73;;;;;;;14.31;100.00;101424.16;5094997;28;20055;-52
2021/09/02 03:04:22;;;;;;;3.35;1.67;;;;;;;14.71;100.00;101415.66;5094473;28;20557;-52
2021/09/02 03:07:25;;;;;;;4.70;2.20;;;;;;;14.73;100.00;101415.97;5095071;28;20185;-51
2021/09/02 03:10:28;;;;;;;2.97;1.55;;;;;;;14.75;100.00;101418.34;5094758;28;20043;-53
2021/09/02 03:13:31;;;;;;;9.60;1.90;;;;;;;14.76;100.00;101415.06;5094503;28;20101;-52
2021/09/02 03:16:33;;;;;;;11.20;2.83;;;;;;;14.16;100.00;101405.56;5094763;28;20078;-52
2021/09/02 03:19:36;;;;;;;6.07;1.95;;;;;;;14.69;100.00;101397.75;5094936;28;20070;-52
2021/09/02 03:22:40;;;;;;;4.22;2.10;;;;;;;14.97;100.00;101391.66;5094535;28;20035;-51
2021/09/02 03:25:43;;;;;;;4.78;1.60;;;;;;;15.04;100.00;101390.56;5094629;28;20054;-51
2021/09/02 03:28:46;;;;;;;7.70;1.98;;;;;;;15.00;100.00;101390.75;5094585;28;20407;-52
2021/09/02 03:31:49;;;;;;;6.68;2.97;;;;;;;14.77;100.00;101396.97;5094680;28;20043;-52
2021/09/02 03:34:52;;;;;;;4.45;1.67;;;;;;;14.86;100.00;101387.78;5094746;28;20043;-51
2021/09/02 03:37:55;;;;;;;4.00;1.77;;;;;;;14.78;100.00;101387.31;5094582;28;20384;-52
2021/09/02 03:40:58;;;;;;;2.90;1.55;;;;;;;14.83;100.00;101386.69;5094402;28;20113;-51
2021/09/02 03:44:00;;;;;;;8.50;2.72;;;;;;;14.88;100.00;101383.25;5094367;28;20115;-51
2021/09/02 03:47:04;;;;;;;5.03;2.00;;;;;;;14.84;100.00;101388.25;5094318;28;20101;-51
2021/09/02 03:50:07;;;;;;;6.32;2.60;;;;;;;14.90;100.00;101391.22;5094252;28;20051;-51
2021/09/02 03:53:10;;;;;;;5.72;2.00;;;;;;;14.84;100.00;101393.06;5093405;28;20063;-51
2021/09/02 03:56:13;;;;;;;14.90;3.40;;;;;;;14.73;100.00;101393.53;5094092;28;20050;-52
2021/09/02 03:59:16;;;;;;;3.88;1.67;;;;;;;14.55;100.00;101390.75;5093700;28;20088;-51
2021/09/02 04:02:19;;;;;;;25.95;3.50;;;;;;;14.42;100.00;101388.06;5094053;28;20047;-51
2021/09/02 04:05:22;;;;;;;6.60;1.67;;;;;;;14.56;100.00;101386.69;5094167;28;20120;-52
2021/09/02 04:08:25;;;;;;;3.83;1.40;;;;;;;14.64;100.00;101385.13;5093135;28;20039;-52
2021/09/02 04:11:28;;;;;;;15.55;3.00;;;;;;;14.79;100.00;101380.44;5093842;28;20082;-52
2021/09/02 04:14:31;;;;;;;7.28;1.52;;;;;;;14.59;100.00;101380.16;5093679;28;20093;-52
2021/09/02 04:17:34;;;;;;;6.22;2.47;;;;;;;14.69;100.00;101378.91;5094027;28;20101;-52
2021/09/02 04:20:37;;;;;;;5.07;1.75;;;;;;;15.02;100.00;101376.25;5093693;28;20483;-52
2021/09/02 04:23:40;;;;;;;7.43;2.83;;;;;;;14.42;100.00;101378.88;5093677;28;20154;-52
2021/09/02 04:26:43;;;;;;;10.40;2.38;;;;;;;14.71;100.00;101379.22;5093607;28;20051;-51
2021/09/02 04:29:46;;;;;;;8.10;2.85;;;;;;;14.80;100.00;101364.41;5093368;28;20042;-53
2021/09/02 04:32:49;;;;;;;10.15;2.67;;;;;;;14.73;100.00;101365.50;5093332;28;20117;-51
2021/09/02 04:35:52;;;;;;;8.13;2.20;;;;;;;14.60;100.00;101367.66;5093909;28;20660;-52
2021/09/02 04:38:55;;;;;;;5.13;2.35;;;;;;;14.61;100.00;101365.66;5093327;28;20047;-52
2021/09/02 04:41:59;;;;;;;2.55;1.00;;;;;;;14.58;100.00;101375.78;5092737;28;20096;-51
2021/09/02 04:45:04;;;;;;;11.50;1.88;;;;;;;14.56;100.00;101372.66;5092621;28;20124;-51
2021/09/02 04:48:18;;;;;;;4.47;1.35;;;;;;;14.55;100.00;101359.91;5091784;28;20127;-52
2021/09/02 04:51:21;;;;;;;8.95;2.58;;;;;;;14.56;100.00;101375.47;5092330;28;20094;-52
2021/09/02 04:54:24;;;;;;;8.73;1.88;;;;;;;14.57;100.00;101374.22;5092761;28;20071;-52
2021/09/02 04:57:27;;;;;;;12.60;2.08;;;;;;;14.64;100.00;101373.16;5092454;28;20047;-52
2021/09/02 05:00:31;;;;;;;6.13;1.35;;;;;;;14.66;100.00;101371.41;5092573;28;20048;-52
2021/09/02 05:03:33;;;;;;;4.63;1.30;;;;;;;14.67;100.00;101377.81;5092803;28;20043;-52
2021/09/02 05:06:36;;;;;;;10.88;2.72;;;;;;;14.85;100.00;101361.75;5097618;28;20118;-51
2021/09/02 05:09:39;;;;;;;5.32;1.05;;;;;;;14.95;100.00;101377.34;5097255;28;20043;-52
2021/09/02 05:12:43;;;;;;;10.13;2.53;;;;;;;14.84;100.00;101377.03;5097178;28;20062;-51
2021/09/02 05:15:46;;;;;;;3.92;1.50;;;;;;;14.91;100.00;101371.09;5097015;28;20120;-51
2021/09/02 05:18:48;;;;;;;7.80;1.73;;;;;;;14.91;100.00;101370.31;5097114;28;20494;-52
2021/09/02 05:21:51;;;;;;;3.50;1.40;;;;;;;14.90;100.00;101369.53;5097086;28;20114;-52
2021/09/02 05:24:54;;;;;;;3.47;1.15;;;;;;;14.91;100.00;101370.31;5097214;28;20044;-52
2021/09/02 05:27:57;;;;;;;3.95;1.60;;;;;;;15.00;100.00;101373.91;5097194;28;20043;-51
2021/09/02 05:31:00;;;;;;;1.90;1.38;;;;;;;14.87;100.00;101378.13;5096806;28;20046;-52
2021/09/02 05:34:03;;;;;;;5.65;1.67;;;;;;;14.89;100.00;101384.03;5112359;28;20674;-51
2021/09/02 05:37:06;;;;;;;2.78;1.25;;;;;;;14.11;100.00;101384.53;5116941;28;20046;-51
2021/09/02 05:40:11;;;;;;;7.10;1.17;;;;;;;14.72;100.00;101386.38;5117197;28;20114;-51
2021/09/02 05:43:14;;;;;;;4.20;1.05;;;;;;;14.72;100.00;101392.00;5113033;28;20043;-51
2021/09/02 05:46:17;;;;;;;4.30;1.33;;;;;;;14.58;100.00;101383.41;5096923;28;20051;-52
2021/09/02 05:49:20;;;;;;;1.63;0.65;;;;;;;14.59;100.00;101382.16;5096834;28;20432;-52
2021/09/02 05:52:23;;;;;;;0.75;0.68;;;;;;;14.79;100.00;101386.06;5096540;28;20420;-51
2021/09/02 05:55:26;;;;;;;3.15;0.70;;;;;;;14.72;100.00;101392.00;5096239;28;20047;-51
2021/09/02 05:58:29;;;;;;;2.95;1.50;;;;;;;14.37;100.00;101385.09;5095992;28;20109;-52
2021/09/02 06:01:31;;;;;;;4.22;1.30;;;;;;;14.54;100.00;101389.16;5095590;28;20074;-52
2021/09/02 06:04:34;;;;;;;1.38;0.85;;;;;;;14.35;100.00;101393.97;5096231;28;20073;-51
2021/09/02 06:07:37;;;;;;;2.45;0.82;;;;;;;14.46;100.00;101399.13;5095981;28;20169;-52
2021/09/02 06:10:40;;;;;;;2.08;0.90;;;;;;;14.32;100.00;101403.31;5095977;28;20059;-51
2021/09/02 06:13:43;;;;;;;3.40;1.45;;;;;;;14.24;100.00;101398.44;5095996;28;20102;-52
2021/09/02 06:16:46;;;;;;;1.63;0.80;;;;;;;14.26;100.00;101393.13;5095229;28;20109;-52
2021/09/02 06:19:49;;;;;;;3.15;1.00;;;;;;;14.29;100.00;101397.84;5096009;28;20100;-52
2021/09/02 06:22:52;;;;;;;3.17;0.82;;;;;;;14.73;100.00;101404.75;5095865;28;20038;-51
2021/09/02 06:25:55;;;;;;;1.60;0.98;;;;;;;14.68;100.00;101408.19;5095880;28;20078;-52
2021/09/02 06:28:58;;;;;;;3.13;0.93;;;;;;;14.84;100.00;101405.06;5083199;28;20050;-51
2021/09/02 06:32:02;;;;;;;3.47;1.15;;;;;;;14.92;100.00;101400.69;5095511;28;20055;-52
2021/09/02 06:35:05;;;;;;;1.10;0.88;;;;;;;14.69;100.00;101412.53;5096001;28;20047;-52
2021/09/02 06:38:09;;;;;;;1.98;0.75;;;;;;;14.59;100.00;101404.59;5095735;28;20130;-52
2021/09/02 06:41:12;;;;;;;2.80;0.63;;;;;;;14.39;100.00;101405.81;5095154;28;20057;-52
2021/09/02 06:44:15;;;;;;;3.38;0.57;;;;;;;14.25;100.00;101395.16;5095719;28;20499;-52
2021/09/02 06:47:18;;;;;;;0.85;0.50;;;;;;;14.47;100.00;101391.50;5094998;28;20541;-52
2021/09/02 06:50:21;;;;;;;0.77;0.40;;;;;;;14.51;100.00;101384.47;5095028;28;20541;-52
2021/09/02 06:53:24;;;;;;;3.88;0.70;;;;;;;14.75;100.00;101390.28;5095269;28;20135;-51
2021/09/02 06:56:26;;;;;;;1.55;0.60;;;;;;;14.95;100.00;101380.13;5094951;28;20502;-51
2021/09/02 06:59:29;;;;;;;2.63;1.35;;;;;;;15.03;100.00;101378.56;5095094;28;20081;-51
2021/09/02 07:02:33;;;;;;;2.28;0.75;;;;;;;15.15;100.00;101386.03;5095160;28;20097;-51
2021/09/02 07:05:36;;;;;;;1.60;0.95;;;;;;;15.26;100.00;101384.78;5095176;28;20165;-51
2021/09/02 07:08:39;;;;;;;4.45;1.20;;;;;;;15.05;100.00;101392.16;5094697;28;20039;-52
2021/09/02 07:11:42;;;;;;;5.63;1.38;;;;;;;15.07;100.00;101396.00;5094495;28;20137;-51
2021/09/02 07:14:45;;;;;;;3.85;0.60;;;;;;;15.04;100.00;101390.56;5094578;28;20090;-52
2021/09/02 07:17:48;;;;;;;2.92;1.08;;;;;;;15.24;100.00;101390.06;5094728;28;20162;-51
2021/09/02 07:20:51;;;;;;;2.70;1.17;;;;;;;15.39;100.00;101382.56;5094570;28;20081;-52
2021/09/02 07:23:54;;;;;;;4.28;0.90;;;;;;;15.49;100.00;101381.31;5094797;28;20053;-52
2021/09/02 07:26:57;;;;;;;2.00;0.80;;;;;;;15.43;100.00;101383.16;5094428;28;20042;-52
2021/09/02 07:30:00;;;;;;;5.15;1.23;;;;;;;15.56;100.00;101380.97;5093956;28;20043;-52
2021/09/02 07:33:03;;;;;;;3.75;0.98;;;;;;;15.75;100.00;101382.47;5094218;28;20082;-51
2021/09/02 07:36:05;;;;;;;2.38;0.68;;;;;;;15.89;100.00;101376.19;5094489;28;20051;-51
2021/09/02 07:39:09;;;;;;;2.63;1.13;;;;;;;15.94;100.00;101375.50;5094442;28;20400;-52
2021/09/02 07:42:12;;;;;;;14.48;1.20;;;;;;;16.04;100.00;101373.44;5094274;28;20038;-51
2021/09/02 07:45:15;;;;;;;3.75;1.38;;;;;;;16.17;100.00;101380.41;5073538;28;20043;-52
2021/09/02 07:48:18;;;;;;;4.57;1.27;;;;;;;16.20;100.00;101384.28;5073706;28;20085;-52
2021/09/02 07:51:21;;;;;;;1.33;0.30;;;;;;;16.20;100.00;101385.06;5073787;28;20078;-51
2021/09/02 07:54:24;;;;;;;3.85;0.85;;;;;;;16.24;100.00;101377.22;5073884;28;20048;-52
2021/09/02 07:57:26;;;;;;;3.85;0.70;;;;;;;15.71;100.00;101381.88;5073163;28;20047;-51
2021/09/02 08:00:29;;;;;;;5.20;1.20;;;;;;;15.93;100.00;101382.41;5073338;28;20043;-51
2021/09/02 08:03:32;;;;;;;5.00;1.05;;;;;;;15.73;100.00;101376.53;5073354;28;20512;-52
2021/09/02 08:06:35;;;;;;;4.82;1.17;;;;;;;16.02;100.00;101368.31;5073310;28;20059;-52
2021/09/02 08:09:38;;;;;;;2.08;0.82;;;;;;;15.73;100.00;101368.13;5073044;28;20039;-51
2021/09/02 08:12:41;;;;;;;0.85;0.80;;;;;;;15.90;100.00;101374.91;5072864;28;20097;-50
2021/09/02 08:15:44;;;;;;;2.13;1.40;;;;;;;16.06;100.00;101373.75;5072786;28;20047;-50
2021/09/02 08:18:47;;;;;;;3.30;1.63;;;;;;;16.16;100.00;101369.63;5073057;28;20055;-50
2021/09/02 08:21:49;;;;;;;5.85;1.17;;;;;;;16.19;100.00;101366.66;5072840;28;20047;-49
2021/09/02 08:24:52;;;;;;;4.38;1.90;;;;;;;16.23;100.00;101358.81;5072840;28;20048;-49
2021/09/02 08:27:56;;;;;;;2.92;0.75;;;;;;;16.32;100.00;101358.75;5073168;28;20448;-49
2021/09/02 08:30:59;;;;;;;2.13;0.50;;;;;;;16.45;100.00;101362.09;5073172;28;20117;-49
2021/09/02 08:34:02;;;;;;;4.60;1.30;;;;;;;16.48;100.00;101371.63;5073097;28;20102;-49
2021/09/02 08:37:06;;;;;;;4.63;1.02;;;;;;;16.61;100.00;101366.56;5072797;28;20051;-49
2021/09/02 08:40:09;;;;;;;2.42;0.85;;;;;;;16.72;100.00;101374.44;5072408;28;20086;-49
2021/09/02 08:43:13;;;;;;;2.55;0.93;;;;;;;16.77;100.00;101370.94;5076094;28;20455;-49
2021/09/02 08:46:16;;;;;;;5.70;1.02;;;;;;;16.88;100.00;101365.53;5092928;28;20092;-49
2021/09/02 08:49:23;;;;;;;3.67;1.73;;;;;;;16.93;100.00;101373.31;5092510;28;20442;-49
2021/09/02 08:52:29;;;;;;;5.90;1.85;;;;;;;16.93;100.00;101367.69;5072167;28;20056;-49
2021/09/02 08:55:34;;;;;;;5.05;1.63;;;;;;;16.98;100.00;101370.59;5072674;28;20082;-49
2021/09/02 08:58:37;;;;;;;8.52;1.83;;;;;;;17.03;100.00;101363.50;5072109;28;20102;-49
2021/09/02 09:01:47;;;;;;;2.85;0.90;;;;;;;17.03;100.00;101371.94;5072373;28;20057;-49
2021/09/02 09:05:11;;;;;;;4.57;1.45;;;;;;;16.98;100.00;101375.47;5072371;28;20505;-49
2021/09/02 09:08:14;;;;;;;1.35;0.90;;;;;;;17.02;100.00;101373.22;5072154;28;20465;-50
2021/09/02 09:11:24;;;;;;;4.47;0.80;;;;;;;17.00;100.00;101379.31;5072310;28;20047;-49
2021/09/02 09:14:28;;;;;;;2.25;1.48;;;;;;;16.74;100.00;101369.09;5072436;28;20045;-49
2021/09/02 09:17:32;;;;;;;6.72;1.48;;;;;;;16.93;100.00;101373.31;5072130;28;20093;-50
2021/09/02 09:20:35;;;;;;;3.85;1.55;;;;;;;17.00;100.00;101372.94;5072556;28;20039;-50
2021/09/02 09:23:55;;;;;;;2.83;0.90;;;;;;;17.06;100.00;101371.00;5072340;28;20047;-49
2021/09/02 09:27:06;;;;;;;6.38;1.50;;;;;;;17.12;100.00;101369.06;5071421;28;20042;-49
2021/09/02 09:30:13;;;;;;;3.33;1.17;;;;;;;17.04;100.00;101368.66;5072061;28;20542;-51
2021/09/02 09:33:16;;;;;;;1.95;0.75;;;;;;;16.98;100.00;101358.56;5072163;28;20097;-49
2021/09/02 09:36:25;;;;;;;4.45;1.25;;;;;;;17.47;100.00;101355.84;5072124;28;20040;-50
2021/09/02 09:39:36;;;;;;;1.85;0.90;;;;;;;17.71;100.00;101356.53;5071725;28;20506;-50
2021/09/02 09:42:52;;;;;;;3.50;2.00;;;;;;;17.74;100.00;101352.72;5072347;28;20721;-50
2021/09/02 09:45:56;;;;;;;6.82;0.95;;;;;;;17.71;100.00;101352.94;5071917;28;20446;-50
2021/09/02 09:49:00;;;;;;;6.70;1.13;;;;;;;17.62;100.00;101348.19;5072126;28;20557;-49
2021/09/02 09:52:26;;;;;;;2.33;1.05;;;;;;;17.65;100.00;101355.66;5072989;28;20132;-49
2021/09/02 09:55:29;;;;;;;3.28;1.33;;;;;;;17.45;100.00;101359.13;5075949;28;20094;-50
2021/09/02 09:58:32;;;;;;;2.40;0.95;;;;;;;17.50;100.00;101359.75;5075300;28;20507;-50
2021/09/02 10:01:35;;;;;;;3.85;1.25;;;;;;;17.50;100.00;101352.06;5075524;28;20086;-50
2021/09/02 10:04:41;;;;;;;2.70;1.50;;;;;;;17.47;100.00;101361.50;5075259;28;20072;-50
2021/09/02 10:07:46;;;;;;;9.73;1.23;;;;;;;17.37;100.00;101348.75;5075409;28;20043;-50
2021/09/02 10:10:49;;;;;;;5.53;2.03;;;;;;;17.35;100.00;101356.91;5075504;28;20381;-50
2021/09/02 10:13:53;;;;;;;1.65;1.10;;;;;;;17.37;100.00;101362.84;5074590;28;20047;-50
2021/09/02 10:16:57;;;;;;;4.15;1.13;;;;;;;17.24;100.00;101362.34;5075264;28;20074;-50
2021/09/02 10:20:10;;;;;;;3.33;1.20;;;;;;;17.23;100.00;101364.41;5074716;28;20043;-50
2021/09/02 10:23:15;;;;;;;3.65;1.50;;;;;;;17.34;100.00;101370.25;5075014;28;20097;-50
2021/09/02 10:26:34;;;;;;;11.32;1.83;;;;;;;17.53;100.00;101364.41;5074798;28;20097;-50
2021/09/02 10:29:39;;;;;;;3.25;0.77;;;;;;;17.76;100.00;101355.81;5074595;28;20599;-50
2021/09/02 10:32:43;;;;;;;2.35;0.73;;;;;;;17.90;100.00;101366.31;5075087;28;20137;-50
2021/09/02 10:35:46;;;;;;;2.83;0.90;;;;;;;17.86;100.00;101359.31;5073682;28;20043;-50
2021/09/02 10:38:54;;;;;;;2.65;1.38;;;;;;;17.90;100.00;101349.41;5074919;28;20093;-50
2021/09/02 10:41:57;;;;;;;4.40;1.23;;;;;;;17.80;100.00;101356.41;5074123;28;20178;-51
2021/09/02 10:45:00;;;;;;;2.45;0.40;;;;;;;17.92;100.00;101344.03;5093134;28;20042;-50
2021/09/02 10:48:07;;;;;;;2.58;1.00;;;;;;;17.80;100.00;101344.38;5095077;28;20047;-51
2021/09/02 10:51:33;;;;;;;4.95;1.20;;;;;;;18.11;100.00;101333.28;5094430;28;20078;-50
2021/09/02 10:54:38;;;;;;;10.13;1.02;;;;;;;18.27;100.00;101340.41;5095141;28;20400;-50
2021/09/02 10:57:41;;;;;;;3.25;1.15;;;;;;;18.28;100.00;101327.88;5094961;28;20101;-50
2021/09/02 11:00:44;;;;;;;3.65;0.47;;;;;;;18.46;100.00;101327.59;5095303;28;20089;-50
2021/09/02 11:03:48;;;;;;;7.18;0.63;;;;;;;18.64;100.00;101321.66;5095038;28;20094;-50
2021/09/02 11:06:52;;;;;;;3.78;1.00;;;;;;;18.60;100.00;101326.75;5095392;28;20070;-50
2021/09/02 11:10:06;;;;;;;2.90;1.10;;;;;;;18.58;100.00;101329.31;5094985;28;20050;-50
2021/09/02 11:13:11;;;;;;;2.05;0.70;;;;;;;18.43;100.00;101322.94;5093870;28;20494;-50
2021/09/02 11:16:25;;;;;;;2.05;0.80;;;;;;;18.36;100.00;101329.00;5094864;28;20093;-50
2021/09/02 11:19:30;;;;;;;6.53;1.60;;;;;;;18.45;100.00;101326.06;5094284;28;20043;-50
2021/09/02 11:22:35;;;;;;;5.00;1.58;;;;;;;18.54;100.00;101329.50;5081902;28;20051;-50
2021/09/02 11:25:49;;;;;;;2.00;0.73;;;;;;;18.51;100.00;101335.38;5094010;28;20135;-50
2021/09/02 11:28:52;;;;;;;5.53;0.68;;;;;;;18.60;100.00;101324.69;5094099;28;20047;-51
2021/09/02 11:32:13;;;;;;;0.85;0.47;;;;;;;18.59;100.00;101331.63;5093690;28;20047;-51
2021/09/02 11:35:16;;;;;;;3.72;1.55;;;;;;;18.30;100.00;101331.72;5094168;28;20507;-50
2021/09/02 11:38:19;;;;;;;4.88;1.00;;;;;;;18.70;100.00;101319.69;5094103;28;20043;-51
2021/09/02 11:41:25;;;;;;;3.42;0.98;;;;;;;18.72;100.00;101322.78;5093854;28;20051;-51
2021/09/02 11:44:31;;;;;;;3.15;0.95;;;;;;;18.60;100.00;101326.75;5093629;28;20039;-50
2021/09/02 11:47:36;;;;;;;5.70;0.95;;;;;;;18.51;100.00;101324.06;5093844;28;20039;-50
2021/09/02 11:50:39;;;;;;;4.22;0.95;;;;;;;18.75;100.00;101321.78;5093849;28;20046;-50
2021/09/02 11:53:42;;;;;;;0.95;0.57;;;;;;;18.29;100.00;101318.13;5093703;28;20051;-49
2021/09/02 11:56:46;;;;;;;2.85;1.20;;;;;;;17.04;100.00;101328.47;5094014;28;20135;-48
2021/09/02 11:59:50;;;;;;;5.40;0.75;;;;;;;16.76;100.00;101330.00;5093477;28;20101;-51
2021/09/02 12:02:56;;;;;;;6.53;1.25;;;;;;;16.72;100.00;101324.53;5093483;28;20043;-51
2021/09/02 12:06:03;;;;;;;7.90;1.58;;;;;;;18.75;100.00;101318.97;5093848;28;20086;-46
2021/09/02 12:09:06;;;;;;;9.82;1.33;;;;;;;19.22;100.00;101298.63;5093486;28;20196;-47
2021/09/02 12:12:09;;;;;;;4.68;1.08;;;;;;;18.79;100.00;101294.13;5093613;28;20043;-51
2021/09/02 12:15:25;;;;;;;2.88;1.40;;;;;;;19.05;100.00;101296.94;5113102;28;20412;-50
2021/09/02 12:18:29;;;;;;;3.85;0.70;;;;;;;19.15;100.00;101287.78;5114747;28;20034;-48
2021/09/02 12:21:34;;;;;;;2.15;0.68;;;;;;;19.55;100.00;101287.63;5113486;28;20184;-52
2021/09/02 12:24:37;;;;;;;3.28;1.05;;;;;;;19.71;100.00;101279.75;5114214;28;20051;-55
2021/09/02 12:27:44;;;;;;;5.72;1.58;;;;;;;19.01;100.00;101282.28;5114120;28;20078;-54
2021/09/02 12:30:48;;;;;;;3.97;1.13;;;;;;;18.67;100.00;101286.78;5113835;28;20043;-55
2021/09/02 12:34:01;;;;;;;4.43;1.40;;;;;;;19.45;100.00;101283.44;5113622;28;20047;-47
2021/09/02 12:37:13;;;;;;;2.30;1.50;;;;;;;19.26;100.00;101276.59;5112896;28;20536;-50
2021/09/02 12:40:21;;;;;;;3.58;0.98;;;;;;;19.36;100.00;101280.78;5113554;28;20034;-46
2021/09/02 12:43:24;;;;;;;7.65;1.63;;;;;;;19.55;100.00;101275.53;5108524;28;20039;-46
2021/09/02 12:46:28;;;;;;;4.22;1.50;;;;;;;20.14;100.00;101269.97;5093270;28;20051;-46
2021/09/02 12:49:39;;;;;;;9.63;1.80;;;;;;;20.52;100.00;101272.19;5093204;28;20082;-46
2021/09/02 12:52:42;;;;;;;;;;;;;;;20.50;100.00;101271.94;5093384;28;20411;-46
2021/09/02 12:55:45;;;;;;;2.28;0.82;;;;;;;20.73;100.00;101264.25;5093364;28;19919;-45
2021/09/02 12:58:48;;;;;;;2.20;0.70;;;;;;;20.87;100.00;101264.03;5092928;28;20507;-46
2021/09/02 13:01:51;;;;;;;7.20;1.02;;;;;;;20.79;100.00;101271.47;5092902;28;20531;-46
2021/09/02 13:04:54;;;;;;;3.40;0.82;;;;;;;20.24;100.00;101262.81;5093102;28;20092;-46
2021/09/02 13:07:59;;;;;;;2.55;0.85;;;;;;;20.75;100.00;101250.34;5093129;28;20127;-45
2021/09/02 13:11:02;;;;;;;5.22;1.17;;;;;;;20.08;100.00;101249.34;5093191;28;20055;-46
2021/09/02 13:14:06;;;;;;;4.53;1.20;;;;;;;20.52;100.00;101249.53;5093183;28;20404;-46
2021/09/02 13:17:08;;;;;;;7.15;0.77;;;;;;;21.04;100.00;101245.00;5092016;28;20097;-46
2021/09/02 13:20:13;;;;;;;5.82;0.90;;;;;;;20.99;100.00;101237.25;5092975;28;20507;-46
2021/09/02 13:23:17;;;;;;;4.93;1.10;;;;;;;21.49;100.00;101240.06;5092461;28;20047;-47
2021/09/02 13:26:20;;;;;;;3.92;0.88;;;;;;;21.37;100.00;101226.44;5094730;28;20131;-49
2021/09/02 13:29:23;;;;;;;2.03;0.60;;;;;;;21.37;100.00;101221.53;5096438;28;20446;-47
2021/09/02 13:32:26;;;;;;;9.63;0.70;;;;;;;21.45;100.00;101218.94;5096239;28;20047;-48
2021/09/02 13:35:29;;;;;;;3.00;0.80;;;;;;;21.51;100.00;101214.81;5095370;28;20563;-47
2021/09/02 13:38:35;;;;;;;1.90;0.50;;;;;;;21.59;100.00;101209.38;5096193;28;20176;-47
2021/09/02 13:41:38;;;;;;;9.32;1.10;;;;;;;21.67;100.00;101193.38;5096488;28;20127;-47
2021/09/02 13:44:41;;;;;;;3.75;1.27;;;;;;;21.65;100.00;101196.75;5096352;28;20047;-48
2021/09/02 13:47:44;;;;;;;2.58;0.28;;;;;;;21.77;100.00;101203.91;5096231;28;20034;-49
2021/09/02 13:50:47;;;;;;;9.45;1.73;;;;;;;21.67;100.00;101188.47;5096751;28;20051;-48
2021/09/02 13:53:50;;;;;;;4.55;0.88;;;;;;;21.62;100.00;101192.09;5096393;28;20047;-50
2021/09/02 13:56:54;;;;;;;4.55;1.10;;;;;;;21.63;100.00;101187.97;5096327;28;20580;-48
2021/09/02 13:59:57;;;;;;;5.88;2.17;;;;;;;21.68;100.00;101177.88;5095874;28;20113;-49
2021/09/02 14:03:00;;;;;;;4.47;0.80;;;;;;;21.60;100.00;101177.66;5096033;28;20043;-50
2021/09/02 14:06:03;;;;;;;4.90;1.13;;;;;;;21.60;100.00;101176.91;5096229;28;20046;-48